Time;durP1;ratioP1;P1;durP2;ratioP2;P2;SDS_P1;SDS_P2;PMS_P1;PMS_P2;Temp;Humidity;BMP_temperature;BMP_pressure;BME280_temperature;BME280_humidity;BME280_pressure;Samples;Min_cycle;Max_cycle;Signal;HPM_P1;HPM_P2
2022/01/04 00:01:12;;;;;;;2.42;0.73;;;8.60;99.90;;;;;;5118838;28;20200;-54
2022/01/04 00:03:37;;;;;;;2.35;0.88;;;8.60;99.90;;;;;;5118490;27;20594;-53
2022/01/04 00:06:03;;;;;;;2.25;0.77;;;8.60;99.90;;;;;;5118828;27;20645;-55
2022/01/04 00:08:28;;;;;;;2.83;0.57;;;8.60;99.90;;;;;;5118820;27;20558;-54
2022/01/04 00:11:05;;;;;;;4.18;1.20;;;8.50;99.90;;;;;;5100500;28;20554;-56
2022/01/04 00:13:31;;;;;;;2.67;1.05;;;8.60;99.90;;;;;;5119129;28;20183;-55
2022/01/04 00:15:57;;;;;;;0.45;0.45;;;8.60;99.90;;;;;;5119209;28;20644;-54
2022/01/04 00:18:24;;;;;;;1.38;0.63;;;8.50;99.90;;;;;;5118833;28;20168;-54
2022/01/04 00:20:50;;;;;;;2.60;0.80;;;8.50;99.90;;;;;;5118854;27;20569;-57
2022/01/04 00:23:17;;;;;;;1.58;0.77;;;8.50;99.90;;;;;;5118862;28;20167;-54
2022/01/04 00:25:45;;;;;;;0.88;0.60;;;8.50;99.90;;;;;;5119045;28;20196;-53
2022/01/04 00:28:11;;;;;;;4.10;0.88;;;8.50;99.90;;;;;;5118656;28;20203;-54
2022/01/04 00:30:38;;;;;;;2.55;0.77;;;8.50;99.90;;;;;;5118725;28;20506;-53
2022/01/04 00:33:06;;;;;;;1.60;0.73;;;8.50;99.90;;;;;;5118709;27;20172;-54
2022/01/04 00:35:32;;;;;;;0.30;0.30;;;8.50;99.90;;;;;;5118654;28;20255;-54
2022/01/04 00:37:59;;;;;;;2.63;0.88;;;8.50;99.90;;;;;;5119244;28;20200;-53
2022/01/04 00:40:25;;;;;;;3.38;0.80;;;8.50;99.90;;;;;;5118943;28;20157;-53
2022/01/04 00:42:51;;;;;;;2.97;0.77;;;8.50;99.90;;;;;;5118948;28;20164;-53
2022/01/04 00:45:17;;;;;;;2.88;0.77;;;8.50;99.90;;;;;;5116112;28;20169;-54
2022/01/04 00:50:09;;;;;;;2.53;0.77;;;8.50;99.90;;;;;;5115674;28;20213;-57
2022/01/04 00:52:34;;;;;;;1.75;0.90;;;8.50;99.90;;;;;;5115239;28;20251;-58
2022/01/04 00:55:00;;;;;;;2.95;0.70;;;8.50;99.90;;;;;;5115506;28;20635;-56
2022/01/04 00:57:25;;;;;;;3.90;0.82;;;8.50;99.90;;;;;;5115488;28;20244;-56
2022/01/04 00:59:51;;;;;;;2.65;0.80;;;8.40;99.90;;;;;;5115130;28;20165;-58
2022/01/04 01:02:16;;;;;;;1.80;0.70;;;8.40;99.90;;;;;;5115126;28;20172;-57
2022/01/04 01:04:42;;;;;;;2.30;0.98;;;8.40;99.90;;;;;;5114830;28;20164;-57
2022/01/04 01:07:07;;;;;;;1.92;0.93;;;8.40;99.90;;;;;;5114437;28;20169;-57
2022/01/04 01:09:39;;;;;;;4.28;1.00;;;8.40;99.90;;;;;;5114893;28;20183;-57
2022/01/04 01:12:05;;;;;;;2.95;0.75;;;8.40;99.90;;;;;;5114753;28;20244;-57
2022/01/04 01:14:31;;;;;;;2.80;0.88;;;8.40;99.90;;;;;;5096649;28;20662;-57
2022/01/04 01:16:56;;;;;;;1.30;0.65;;;8.30;99.90;;;;;;5115158;28;20179;-57
2022/01/04 01:19:22;;;;;;;3.28;1.10;;;8.30;99.90;;;;;;5114778;28;20210;-57
2022/01/04 01:21:47;;;;;;;2.10;1.00;;;8.30;99.90;;;;;;5114754;28;20578;-57
2022/01/04 01:24:13;;;;;;;7.07;0.90;;;8.30;99.90;;;;;;5096428;28;20199;-57
2022/01/04 01:26:38;;;;;;;7.88;0.73;;;8.30;99.90;;;;;;5114673;28;20691;-58
2022/01/04 01:29:04;;;;;;;2.80;0.70;;;8.30;99.90;;;;;;5114535;28;20217;-57
2022/01/04 01:31:30;;;;;;;1.45;0.47;;;8.30;99.90;;;;;;5114778;28;20562;-57
2022/01/04 01:33:56;;;;;;;0.85;0.47;;;8.20;99.90;;;;;;5115081;28;20181;-57
2022/01/04 01:36:21;;;;;;;2.55;1.30;;;8.20;99.90;;;;;;5114485;28;20168;-57
2022/01/04 01:38:47;;;;;;;3.40;0.98;;;8.20;99.90;;;;;;5114694;28;20168;-56
2022/01/04 01:41:12;;;;;;;0.98;0.50;;;8.20;99.90;;;;;;5114335;28;20160;-57
2022/01/04 01:43:38;;;;;;;2.00;0.70;;;8.20;99.90;;;;;;5114295;28;20245;-57
2022/01/04 01:46:03;;;;;;;1.67;0.82;;;8.20;99.90;;;;;;5114258;28;20213;-57
2022/01/04 01:48:29;;;;;;;1.45;0.80;;;8.20;99.90;;;;;;5114459;28;20333;-57
2022/01/04 01:50:55;;;;;;;0.93;0.80;;;8.20;99.90;;;;;;5114711;28;20188;-57
2022/01/04 01:53:21;;;;;;;2.38;0.63;;;8.20;99.90;;;;;;5114407;28;20177;-57
2022/01/04 01:55:47;;;;;;;3.67;1.13;;;8.10;99.90;;;;;;5114069;28;20583;-57
2022/01/04 01:58:12;;;;;;;2.40;0.82;;;8.10;99.90;;;;;;5113660;28;20169;-57
2022/01/04 02:00:39;;;;;;;0.73;0.70;;;8.20;99.90;;;;;;5113992;28;20169;-57
2022/01/04 02:03:04;;;;;;;5.38;1.63;;;8.10;99.90;;;;;;5114000;28;20169;-57
2022/01/04 02:05:30;;;;;;;0.35;0.30;;;8.20;99.90;;;;;;5114061;28;20209;-54
2022/01/04 02:07:57;;;;;;;0.45;0.43;;;8.10;99.90;;;;;;5114251;28;20200;-57
2022/01/04 02:10:23;;;;;;;2.28;0.55;;;8.10;99.90;;;;;;5113636;28;20199;-57
2022/01/04 02:12:49;;;;;;;1.55;0.60;;;8.10;99.90;;;;;;5113775;28;20181;-57
2022/01/04 02:15:21;;;;;;;1.13;0.77;;;8.10;99.90;;;;;;5113663;28;20169;-58
2022/01/04 02:17:47;;;;;;;1.17;1.08;;;8.10;99.90;;;;;;5113659;28;20294;-58
2022/01/04 02:20:15;;;;;;;1.10;0.70;;;8.10;99.90;;;;;;5113500;28;20293;-57
2022/01/04 02:22:41;;;;;;;0.65;0.60;;;8.10;99.90;;;;;;5096049;28;20261;-57
2022/01/04 02:25:09;;;;;;;1.17;0.70;;;8.10;99.90;;;;;;5113511;28;20177;-58
2022/01/04 02:27:36;;;;;;;1.10;0.88;;;8.10;99.90;;;;;;5113349;28;20261;-59
2022/01/04 02:30:05;;;;;;;4.07;1.73;;;8.00;99.90;;;;;;5113432;28;20647;-60
2022/01/04 02:32:30;;;;;;;3.92;1.05;;;8.00;99.90;;;;;;5113354;28;20214;-56
2022/01/04 02:34:56;;;;;;;1.65;1.10;;;8.10;99.90;;;;;;5095382;28;20173;-56
2022/01/04 02:37:24;;;;;;;1.38;0.85;;;8.00;99.90;;;;;;5113274;28;20168;-56
2022/01/04 02:39:51;;;;;;;2.28;1.23;;;8.00;99.90;;;;;;5113482;28;20176;-57
2022/01/04 02:42:17;;;;;;;2.65;0.90;;;8.00;99.90;;;;;;5113181;28;20165;-57
2022/01/04 02:44:43;;;;;;;1.95;0.90;;;8.00;99.90;;;;;;5113123;28;20209;-57
2022/01/04 02:47:08;;;;;;;0.90;0.85;;;8.00;99.90;;;;;;5113057;28;20179;-58
2022/01/04 02:49:34;;;;;;;2.05;1.17;;;8.00;99.90;;;;;;5113040;28;20169;-57
2022/01/04 02:52:00;;;;;;;3.85;1.35;;;8.00;99.90;;;;;;5112971;28;20205;-54
2022/01/04 02:54:26;;;;;;;3.88;0.95;;;8.00;99.90;;;;;;5113307;28;20165;-57
2022/01/04 02:56:51;;;;;;;1.90;1.15;;;8.00;99.90;;;;;;5112654;28;20237;-57
2022/01/04 02:59:17;;;;;;;0.95;0.95;;;8.00;99.90;;;;;;5112631;28;20169;-58
2022/01/04 03:01:43;;;;;;;1.45;1.15;;;8.00;99.90;;;;;;5112480;28;20160;-58
2022/01/04 03:04:09;;;;;;;1.88;1.00;;;8.00;99.90;;;;;;5112862;28;20178;-56
2022/01/04 03:06:35;;;;;;;1.00;0.93;;;8.00;99.90;;;;;;5113086;28;20211;-57
2022/01/04 03:09:03;;;;;;;4.18;0.95;;;8.10;99.90;;;;;;5093736;28;20197;-57
2022/01/04 03:11:28;;;;;;;1.63;0.98;;;8.00;99.90;;;;;;5112796;28;20208;-58
2022/01/04 03:13:54;;;;;;;4.40;1.23;;;8.00;99.90;;;;;;5112701;28;20540;-58
2022/01/04 03:16:19;;;;;;;1.88;0.88;;;8.00;99.90;;;;;;5094365;28;20172;-58
2022/01/04 03:19:05;;;;;;;1.25;1.10;;;8.00;99.90;;;;;;5112624;28;20164;-58
2022/01/04 03:21:39;;;;;;;1.02;0.90;;;8.10;99.90;;;;;;5112746;28;20203;-58
2022/01/04 03:24:06;;;;;;;1.55;0.85;;;8.00;99.90;;;;;;5112476;28;20163;-54
2022/01/04 03:26:31;;;;;;;2.15;0.77;;;8.00;99.90;;;;;;5112517;28;20169;-54
2022/01/04 03:28:57;;;;;;;1.25;0.82;;;8.00;99.90;;;;;;5112687;28;20299;-53
2022/01/04 03:31:24;;;;;;;2.22;0.80;;;8.00;99.90;;;;;;5112488;28;20267;-54
2022/01/04 03:33:49;;;;;;;0.82;0.80;;;8.10;99.90;;;;;;5112523;28;20704;-55
2022/01/04 03:36:16;;;;;;;3.72;1.00;;;8.10;99.90;;;;;;5112729;28;20199;-56
2022/01/04 03:38:42;;;;;;;3.17;1.63;;;8.10;99.90;;;;;;5112453;28;20651;-54
2022/01/04 03:41:09;;;;;;;1.25;0.90;;;8.00;99.90;;;;;;5094114;28;20173;-54
2022/01/04 03:43:37;;;;;;;4.47;1.10;;;8.10;99.90;;;;;;5112304;28;20225;-56
2022/01/04 03:46:04;;;;;;;2.33;1.10;;;8.10;99.90;;;;;;5112269;28;20571;-55
2022/01/04 03:48:29;;;;;;;0.75;0.75;;;8.10;99.90;;;;;;5112338;28;20201;-53
2022/01/04 03:50:55;;;;;;;2.22;1.02;;;8.10;99.90;;;;;;5112684;28;20168;-54
2022/01/04 03:53:20;;;;;;;2.20;1.08;;;8.20;99.90;;;;;;5112272;28;20161;-53
2022/01/04 03:55:46;;;;;;;3.70;0.95;;;8.20;99.90;;;;;;5112294;28;20157;-53
2022/01/04 03:58:11;;;;;;;1.70;0.93;;;8.10;99.90;;;;;;5112216;28;20248;-53
2022/01/04 04:00:37;;;;;;;2.05;0.98;;;8.00;99.90;;;;;;5112277;28;20188;-56
2022/01/04 04:03:02;;;;;;;5.00;1.20;;;8.00;99.90;;;;;;5112438;28;20193;-56
2022/01/04 04:05:28;;;;;;;4.68;1.40;;;8.00;99.90;;;;;;5112438;28;20161;-57
2022/01/04 04:07:53;;;;;;;6.03;1.23;;;8.10;99.90;;;;;;5112037;28;20211;-56
2022/01/04 04:10:19;;;;;;;3.03;1.20;;;8.10;99.90;;;;;;5112062;28;20165;-54
2022/01/04 04:12:44;;;;;;;3.50;1.27;;;8.10;99.90;;;;;;5111912;28;20333;-56
2022/01/04 04:15:11;;;;;;;1.92;1.50;;;8.10;99.90;;;;;;5112143;28;20167;-55
2022/01/04 04:17:37;;;;;;;3.13;1.70;;;8.20;99.90;;;;;;5112325;28;20179;-54
2022/01/04 04:20:04;;;;;;;3.10;1.40;;;8.20;99.90;;;;;;5113505;28;20172;-54
2022/01/04 04:22:31;;;;;;;3.35;1.60;;;8.10;99.90;;;;;;5115920;28;20213;-54
2022/01/04 04:24:56;;;;;;;2.40;1.50;;;8.10;99.90;;;;;;5097990;28;20595;-57
2022/01/04 04:27:22;;;;;;;1.75;1.60;;;8.10;99.90;;;;;;5115770;28;20330;-57
2022/01/04 04:29:47;;;;;;;2.45;1.60;;;8.20;99.90;;;;;;5115765;28;20185;-57
2022/01/04 04:32:13;;;;;;;1.65;1.55;;;8.10;99.90;;;;;;5116035;28;20192;-57
2022/01/04 04:34:39;;;;;;;4.97;2.28;;;8.20;99.90;;;;;;5115708;28;20168;-58
2022/01/04 04:37:05;;;;;;;2.92;1.90;;;8.20;99.90;;;;;;5115605;28;20157;-58
2022/01/04 04:39:31;;;;;;;4.95;2.08;;;8.20;99.90;;;;;;5115533;28;20166;-57
2022/01/04 04:41:57;;;;;;;3.45;2.03;;;8.20;99.90;;;;;;5115925;28;20656;-57
2022/01/04 04:44:22;;;;;;;3.80;3.10;;;8.20;99.90;;;;;;5115527;28;20172;-57
2022/01/04 04:46:49;;;;;;;3.53;2.70;;;8.10;99.90;;;;;;5115458;28;20196;-57
2022/01/04 04:49:15;;;;;;;4.00;2.95;;;8.10;99.90;;;;;;5115557;28;20208;-54
2022/01/04 04:51:41;;;;;;;4.80;3.10;;;8.20;99.90;;;;;;5115326;28;20161;-54
2022/01/04 04:54:06;;;;;;;5.93;2.83;;;8.20;99.90;;;;;;5115341;28;20259;-55
2022/01/04 04:56:34;;;;;;;3.10;2.80;;;8.10;99.90;;;;;;5115182;28;20160;-54
2022/01/04 04:58:59;;;;;;;2.80;2.50;;;8.10;99.90;;;;;;5115177;28;20688;-54
2022/01/04 05:01:25;;;;;;;4.55;3.15;;;8.20;99.90;;;;;;5097200;28;20181;-53
2022/01/04 05:03:52;;;;;;;6.03;2.65;;;8.20;99.90;;;;;;5115221;28;20172;-54
2022/01/04 05:06:18;;;;;;;2.85;2.33;;;8.10;99.90;;;;;;5115038;28;20164;-54
2022/01/04 05:08:43;;;;;;;5.57;2.60;;;8.10;99.90;;;;;;5115020;28;20253;-54
2022/01/04 05:11:09;;;;;;;3.85;2.50;;;8.10;99.90;;;;;;5114934;28;20217;-53
2022/01/04 05:13:34;;;;;;;4.07;3.25;;;8.10;99.90;;;;;;5096661;28;20165;-54
2022/01/04 05:16:00;;;;;;;3.45;3.15;;;8.10;99.90;;;;;;5114941;28;20172;-54
2022/01/04 05:18:26;;;;;;;3.70;2.45;;;8.10;99.90;;;;;;5115222;28;20165;-58
2022/01/04 05:20:51;;;;;;;3.80;2.78;;;8.10;99.90;;;;;;5114872;28;20643;-57
2022/01/04 05:23:17;;;;;;;8.23;3.40;;;8.10;99.90;;;;;;5114717;28;20256;-56
2022/01/04 05:25:42;;;;;;;4.60;3.17;;;8.20;99.90;;;;;;5114915;28;20541;-57
2022/01/04 05:28:08;;;;;;;4.85;3.53;;;8.20;99.90;;;;;;5114559;28;20249;-58
2022/01/04 05:30:33;;;;;;;4.53;3.47;;;8.10;99.90;;;;;;5114751;28;20238;-58
2022/01/04 05:32:59;;;;;;;4.20;3.47;;;8.20;99.90;;;;;;5114124;28;20153;-57
2022/01/04 05:35:24;;;;;;;6.15;4.10;;;8.20;99.90;;;;;;5115042;28;20172;-58
2022/01/04 05:37:50;;;;;;;8.98;4.03;;;8.10;99.90;;;;;;5114464;28;20248;-58
2022/01/04 05:40:15;;;;;;;6.45;3.40;;;8.20;99.90;;;;;;5113973;28;20176;-58
2022/01/04 05:42:41;;;;;;;4.32;3.28;;;8.10;99.90;;;;;;5114368;28;20164;-58
2022/01/04 05:45:07;;;;;;;4.40;4.00;;;8.10;99.90;;;;;;5114300;28;20180;-58
2022/01/04 05:47:33;;;;;;;6.63;5.32;;;8.10;99.90;;;;;;5114168;28;20220;-58
2022/01/04 05:49:58;;;;;;;6.80;5.85;;;8.10;99.90;;;;;;5114546;28;20176;-56
2022/01/04 05:52:24;;;;;;;7.57;5.85;;;8.20;99.90;;;;;;5114411;28;20559;-57
2022/01/04 05:54:51;;;;;;;7.53;6.68;;;8.10;99.90;;;;;;5114039;28;20164;-58
2022/01/04 05:57:17;;;;;;;8.50;5.85;;;8.10;99.90;;;;;;5114205;28;20177;-57
2022/01/04 05:59:43;;;;;;;5.97;3.78;;;8.10;99.90;;;;;;5113899;28;20160;-56
2022/01/04 06:02:08;;;;;;;5.10;4.40;;;8.10;99.90;;;;;;5113816;28;20173;-58
2022/01/04 06:04:34;;;;;;;4.57;3.80;;;8.10;99.90;;;;;;5113761;28;20203;-57
2022/01/04 06:07:00;;;;;;;7.55;3.67;;;8.20;99.90;;;;;;5113751;28;20183;-57
2022/01/04 06:09:29;;;;;;;5.18;3.50;;;8.20;99.90;;;;;;5114037;28;20210;-58
2022/01/04 06:11:59;;;;;;;6.47;3.88;;;8.20;99.90;;;;;;5113972;28;20224;-57
2022/01/04 06:17:10;;;;;;;8.18;4.18;;;8.20;99.90;;;;;;5132896;27;20163;-55
2022/01/04 06:19:37;;;;;;;4.90;4.40;;;8.20;99.90;;;;;;5132979;27;20170;-55
2022/01/04 06:22:03;;;;;;;4.50;3.90;;;8.20;99.90;;;;;;5132747;27;20192;-56
2022/01/04 06:24:28;;;;;;;5.00;3.78;;;8.20;99.90;;;;;;5133150;27;20628;-55
2022/01/04 06:26:54;;;;;;;3.97;3.40;;;8.20;99.90;;;;;;5132751;27;20260;-56
2022/01/04 06:29:22;;;;;;;4.13;3.17;;;8.10;99.90;;;;;;5132637;27;20203;-55
2022/01/04 06:31:47;;;;;;;3.28;2.80;;;8.10;99.90;;;;;;5132407;27;20541;-56
2022/01/04 06:34:13;;;;;;;4.53;2.53;;;8.20;99.90;;;;;;5131530;27;20164;-58
2022/01/04 06:36:39;;;;;;;4.30;2.53;;;8.20;99.90;;;;;;5111946;28;20208;-52
2022/01/04 06:39:05;;;;;;;3.13;2.33;;;8.20;99.90;;;;;;5112214;28;20165;-58
2022/01/04 06:41:31;;;;;;;4.18;2.53;;;8.20;99.90;;;;;;5112032;28;20550;-59
2022/01/04 06:43:57;;;;;;;3.28;2.92;;;8.30;99.90;;;;;;5111204;28;20244;-55
2022/01/04 06:46:23;;;;;;;4.30;3.33;;;8.20;99.90;;;;;;5111766;28;20256;-49
2022/01/04 06:48:49;;;;;;;4.07;2.75;;;8.20;99.90;;;;;;5111603;28;20750;-54
2022/01/04 06:51:14;;;;;;;3.72;3.40;;;8.20;99.90;;;;;;5111811;28;20171;-56
2022/01/04 06:53:40;;;;;;;4.68;3.13;;;8.20;99.90;;;;;;5111709;28;20227;-55
2022/01/04 06:56:05;;;;;;;4.75;2.97;;;8.20;99.90;;;;;;5111617;28;20165;-55
2022/01/04 06:58:31;;;;;;;3.70;3.40;;;8.10;99.90;;;;;;5111578;28;20225;-49
2022/01/04 07:00:56;;;;;;;4.07;3.15;;;8.10;99.90;;;;;;5111893;28;20255;-60
2022/01/04 07:03:22;;;;;;;4.95;3.67;;;8.10;99.90;;;;;;5111461;28;20160;-64
2022/01/04 07:05:47;;;;;;;6.05;4.15;;;8.10;99.90;;;;;;5111543;28;20168;-51
2022/01/04 07:08:13;;;;;;;5.05;4.13;;;8.10;99.90;;;;;;5111248;28;20192;-58
2022/01/04 07:10:39;;;;;;;6.68;5.20;;;8.10;99.90;;;;;;5111332;28;20194;-55
2022/01/04 07:13:04;;;;;;;7.15;4.90;;;8.20;99.90;;;;;;5111285;28;20168;-57
2022/01/04 07:15:30;;;;;;;6.22;4.65;;;8.10;99.90;;;;;;5111323;28;20184;-54
2022/01/04 07:17:55;;;;;;;7.13;5.22;;;8.10;99.90;;;;;;5111589;28;20204;-57
2022/01/04 07:20:21;;;;;;;6.90;5.68;;;8.20;99.90;;;;;;5111484;28;20255;-55
2022/01/04 07:22:46;;;;;;;5.80;5.30;;;8.20;99.90;;;;;;5111235;28;20629;-52
2022/01/04 07:25:12;;;;;;;5.93;5.20;;;8.20;99.90;;;;;;5111226;28;20177;-57
2022/01/04 07:27:38;;;;;;;5.55;5.05;;;8.20;99.90;;;;;;5111386;28;20277;-66
2022/01/04 07:30:04;;;;;;;5.50;5.00;;;8.20;99.90;;;;;;5111414;28;20187;-52
2022/01/04 07:32:30;;;;;;;8.63;5.65;;;8.20;99.90;;;;;;5111257;28;20522;-56
2022/01/04 07:34:56;;;;;;;7.10;5.45;;;8.20;99.90;;;;;;5111632;28;20172;-51
2022/01/04 07:37:22;;;;;;;6.20;5.28;;;8.20;99.90;;;;;;5111255;28;20182;-58
2022/01/04 07:39:48;;;;;;;6.20;5.05;;;8.20;99.90;;;;;;5092807;28;20172;-55
2022/01/04 07:42:13;;;;;;;6.53;5.15;;;8.20;99.90;;;;;;5110858;28;20156;-55
2022/01/04 07:44:39;;;;;;;6.25;5.43;;;8.20;99.90;;;;;;5110908;28;20160;-56
2022/01/04 07:47:05;;;;;;;5.80;5.15;;;8.10;99.90;;;;;;5121918;28;20167;-51
2022/01/04 07:49:30;;;;;;;6.72;5.75;;;8.20;99.90;;;;;;5131438;28;20243;-53
2022/01/04 07:51:56;;;;;;;7.78;6.78;;;8.20;99.90;;;;;;5131929;28;20196;-52
2022/01/04 07:54:22;;;;;;;8.85;6.38;;;8.20;99.90;;;;;;5131552;27;20527;-53
2022/01/04 07:56:47;;;;;;;7.80;7.00;;;8.30;99.90;;;;;;5135576;27;20168;-54
2022/01/04 07:59:14;;;;;;;7.88;6.75;;;8.20;99.90;;;;;;5135635;27;20225;-51
2022/01/04 08:01:40;;;;;;;10.77;7.75;;;8.20;99.90;;;;;;5135395;27;20627;-55
2022/01/04 08:04:05;;;;;;;8.88;7.38;;;8.20;99.90;;;;;;5135501;27;20175;-52
2022/01/04 08:06:31;;;;;;;9.88;7.25;;;8.20;99.90;;;;;;5135700;27;20239;-51
2022/01/04 08:08:57;;;;;;;8.73;7.38;;;8.20;99.90;;;;;;5135612;27;20753;-54
2022/01/04 08:11:25;;;;;;;8.95;7.70;;;8.10;99.90;;;;;;5116757;27;20216;-53
2022/01/04 08:13:51;;;;;;;11.25;8.13;;;8.10;99.90;;;;;;5114617;28;20164;-53
2022/01/04 08:16:17;;;;;;;10.52;8.20;;;8.10;99.90;;;;;;5115328;28;20226;-52
2022/01/04 08:18:43;;;;;;;12.07;8.43;;;8.10;99.90;;;;;;5114857;28;20176;-51
2022/01/04 08:21:09;;;;;;;12.02;8.25;;;8.00;99.90;;;;;;5114673;28;20194;-52
2022/01/04 08:23:35;;;;;;;10.05;7.22;;;8.00;99.90;;;;;;5110313;27;20173;-52
2022/01/04 08:26:00;;;;;;;10.27;7.70;;;7.90;99.90;;;;;;5114565;28;20185;-51
2022/01/04 08:28:26;;;;;;;9.50;7.38;;;8.00;99.90;;;;;;5114598;28;20201;-49
2022/01/04 08:30:52;;;;;;;9.68;6.85;;;8.00;99.90;;;;;;5114636;28;20211;-50
2022/01/04 08:33:18;;;;;;;9.00;7.10;;;8.00;99.90;;;;;;5114295;28;20512;-49
2022/01/04 08:35:44;;;;;;;9.95;7.68;;;8.00;99.90;;;;;;5114277;28;20165;-54
2022/01/04 08:38:09;;;;;;;8.13;7.00;;;8.10;99.90;;;;;;5114296;28;20648;-46
2022/01/04 08:40:36;;;;;;;10.25;6.95;;;8.10;99.90;;;;;;5114168;28;20204;-49
2022/01/04 08:43:02;;;;;;;9.95;7.20;;;8.10;99.90;;;;;;5114179;28;20512;-51
2022/01/04 08:45:28;;;;;;;8.10;6.22;;;8.10;99.90;;;;;;5114503;28;20220;-47
2022/01/04 08:47:54;;;;;;;9.75;5.57;;;8.10;99.90;;;;;;5128884;27;20196;-47
2022/01/04 08:50:20;;;;;;;8.68;5.70;;;8.10;99.90;;;;;;5134831;27;20532;-48
2022/01/04 08:52:49;;;;;;;13.80;6.53;;;8.10;99.90;;;;;;5134747;27;20170;-52
2022/01/04 08:55:14;;;;;;;10.55;5.90;;;8.20;99.90;;;;;;5134745;27;20519;-45
2022/01/04 08:57:40;;;;;;;10.50;5.60;;;8.10;99.90;;;;;;5134432;27;20175;-53
2022/01/04 09:00:08;;;;;;;9.80;5.32;;;8.20;99.90;;;;;;5134429;27;20164;-52
2022/01/04 09:02:34;;;;;;;7.72;4.85;;;8.20;99.90;;;;;;5134366;27;20175;-51
2022/01/04 09:05:01;;;;;;;8.43;5.22;;;8.20;99.90;;;;;;5129445;27;20646;-48
2022/01/04 09:07:26;;;;;;;10.55;4.80;;;8.10;99.90;;;;;;5112200;28;20226;-56
2022/01/04 09:09:52;;;;;;;9.65;5.10;;;8.10;99.90;;;;;;5112285;28;20192;-50
2022/01/04 09:12:20;;;;;;;13.55;5.10;;;8.10;99.90;;;;;;5113268;28;20303;-45
2022/01/04 09:20:11;;;;;;;11.55;5.63;;;8.10;99.90;;;;;;5113308;28;20191;-49
2022/01/04 09:22:37;;;;;;;8.60;4.80;;;8.20;99.90;;;;;;5112192;28;20164;-53
2022/01/04 09:25:04;;;;;;;7.35;5.10;;;8.20;99.90;;;;;;5111926;28;20601;-49
2022/01/04 09:27:30;;;;;;;6.90;4.80;;;8.10;99.90;;;;;;5111844;28;20179;-49
2022/01/04 09:29:56;;;;;;;8.65;5.25;;;8.10;99.90;;;;;;5112095;28;20555;-50
2022/01/04 09:32:22;;;;;;;7.30;5.00;;;8.20;99.90;;;;;;5111580;28;20525;-45
2022/01/04 09:34:48;;;;;;;7.90;4.78;;;8.10;99.90;;;;;;5112676;28;20172;-48
2022/01/04 09:37:14;;;;;;;11.23;5.28;;;8.20;99.90;;;;;;5111422;28;20186;-49
2022/01/04 09:39:40;;;;;;;8.60;5.63;;;8.20;99.90;;;;;;5111304;28;20165;-45
2022/01/04 09:42:08;;;;;;;6.95;5.28;;;8.30;99.90;;;;;;5111370;28;20164;-49
2022/01/04 09:44:34;;;;;;;7.88;4.60;;;8.30;99.90;;;;;;5111254;28;20163;-51
2022/01/04 09:47:02;;;;;;;8.43;4.60;;;8.30;99.90;;;;;;5116731;27;20203;-45
2022/01/04 09:49:29;;;;;;;8.05;4.28;;;8.40;99.90;;;;;;5132190;27;20199;-48
2022/01/04 09:51:56;;;;;;;12.75;4.57;;;8.30;99.90;;;;;;5132378;27;20225;-51
2022/01/04 09:54:26;;;;;;;7.38;4.22;;;8.40;99.90;;;;;;5131382;27;20254;-49
2022/01/04 09:56:52;;;;;;;8.98;4.78;;;8.30;99.90;;;;;;5131521;27;20164;-49
2022/01/04 09:59:19;;;;;;;8.32;4.25;;;8.30;99.90;;;;;;5113410;27;20255;-46
2022/01/04 10:01:50;;;;;;;10.15;4.53;;;8.30;99.90;;;;;;5112205;28;20221;-49
2022/01/04 10:04:17;;;;;;;6.32;4.68;;;8.40;99.90;;;;;;5112896;28;20217;-49
2022/01/04 10:07:01;;;;;;;7.35;4.38;;;8.30;99.90;;;;;;5111415;28;20165;-45
2022/01/04 10:09:48;;;;;;;4.28;3.65;;;8.30;99.90;;;;;;5111347;28;20207;-45
2022/01/04 10:12:21;;;;;;;11.05;4.32;;;8.30;99.90;;;;;;5112357;28;20240;-50
2022/01/04 10:14:50;;;;;;;9.75;4.03;;;8.30;99.90;;;;;;5112626;28;20169;-42
2022/01/04 10:17:27;;;;;;;6.90;4.15;;;8.30;99.90;;;;;;5112378;28;20460;-45
2022/01/04 10:19:55;;;;;;;9.27;4.00;;;8.30;99.90;;;;;;5112320;28;20172;-49
2022/01/04 10:22:30;;;;;;;7.70;4.53;;;8.40;99.90;;;;;;5094523;28;20688;-51
2022/01/04 10:25:05;;;;;;;10.27;5.20;;;8.30;99.90;;;;;;5111778;27;20160;-49
2022/01/04 10:27:37;;;;;;;5.43;4.68;;;8.30;99.90;;;;;;5092030;27;20179;-49
2022/01/04 10:30:28;;;;;;;7.07;4.97;;;8.30;99.90;;;;;;5112397;28;20264;-50
2022/01/04 10:32:57;;;;;;;7.97;4.95;;;8.30;99.90;;;;;;5128185;27;20607;-52
2022/01/04 10:35:32;;;;;;;5.43;4.55;;;8.30;99.90;;;;;;5132528;27;20183;-50
2022/01/04 10:38:01;;;;;;;6.75;4.78;;;8.40;99.90;;;;;;5132582;27;20194;-51
2022/01/04 10:40:28;;;;;;;4.00;3.35;;;8.40;99.90;;;;;;5132984;27;20254;-50
2022/01/04 10:42:54;;;;;;;6.80;3.78;;;8.30;99.90;;;;;;5132389;27;20172;-53
2022/01/04 10:45:31;;;;;;;3.03;2.72;;;8.30;99.90;;;;;;5132192;27;20212;-47
2022/01/04 10:48:34;;;;;;;2.97;2.35;;;8.30;99.90;;;;;;5132234;27;20302;-52
2022/01/04 10:51:12;;;;;;;3.63;2.30;;;8.30;99.90;;;;;;5131455;27;20175;-49
2022/01/04 10:53:45;;;;;;;3.65;2.50;;;8.30;99.90;;;;;;5132155;27;20183;-50
2022/01/04 10:56:15;;;;;;;7.38;3.97;;;8.30;99.90;;;;;;5132200;27;20192;-49
2022/01/04 10:58:47;;;;;;;3.42;2.75;;;8.30;99.90;;;;;;5131963;27;20164;-51
2022/01/04 11:01:16;;;;;;;3.65;2.47;;;8.30;99.90;;;;;;5132141;27;20172;-51
2022/01/04 11:03:44;;;;;;;7.32;2.83;;;8.30;99.90;;;;;;5131512;27;20164;-51
2022/01/04 11:06:19;;;;;;;2.70;2.33;;;8.30;99.90;;;;;;5132111;27;20196;-51
2022/01/04 11:08:45;;;;;;;4.22;2.10;;;8.30;99.90;;;;;;5131591;27;20195;-51
2022/01/04 11:11:10;;;;;;;3.33;2.40;;;8.30;99.90;;;;;;5131714;27;20218;-51
2022/01/04 11:13:37;;;;;;;2.40;2.20;;;8.20;99.90;;;;;;5131096;27;20195;-51
2022/01/04 11:16:03;;;;;;;5.60;2.40;;;8.20;99.90;;;;;;5131647;27;20164;-51
2022/01/04 11:18:31;;;;;;;5.10;4.35;;;8.20;99.90;;;;;;5131636;27;20220;-49
2022/01/04 11:20:57;;;;;;;4.05;2.83;;;8.20;99.90;;;;;;5131967;27;20152;-51
2022/01/04 11:23:29;;;;;;;4.68;3.30;;;8.10;99.90;;;;;;5113129;27;20217;-51
2022/01/04 11:25:56;;;;;;;3.38;3.03;;;8.10;99.90;;;;;;5113603;28;20213;-51
2022/01/04 11:28:22;;;;;;;5.85;3.40;;;8.20;99.90;;;;;;5131461;27;20259;-51
2022/01/04 11:31:13;;;;;;;5.35;3.13;;;8.20;99.90;;;;;;5130976;27;20719;-51
2022/01/04 11:33:53;;;;;;;5.68;3.28;;;8.20;99.90;;;;;;5131639;27;20186;-52
2022/01/04 11:36:20;;;;;;;4.85;4.18;;;8.20;99.90;;;;;;5131654;28;20203;-51
2022/01/04 11:38:46;;;;;;;4.82;3.38;;;8.30;99.90;;;;;;5131628;28;20164;-51
2022/01/04 11:41:23;;;;;;;5.43;3.30;;;8.30;99.90;;;;;;5131545;28;20207;-49
2022/01/04 11:43:49;;;;;;;6.05;3.60;;;8.30;99.90;;;;;;5131801;28;20175;-49
2022/01/04 11:46:35;;;;;;;7.28;3.30;;;8.30;99.90;;;;;;5131857;28;20567;-49
2022/01/04 11:49:09;;;;;;;2.63;2.42;;;8.40;99.90;;;;;;5131376;28;20199;-50
2022/01/04 11:51:36;;;;;;;3.85;2.90;;;8.30;99.90;;;;;;5131286;28;20192;-51
2022/01/04 11:54:26;;;;;;;3.28;2.47;;;8.30;99.90;;;;;;5131463;28;20168;-51
2022/01/04 11:57:06;;;;;;;3.47;2.50;;;8.40;99.90;;;;;;5131693;28;20221;-51
2022/01/04 11:59:36;;;;;;;3.67;2.97;;;8.40;99.90;;;;;;5131654;28;20175;-51
2022/01/04 12:02:26;;;;;;;4.35;2.90;;;8.40;99.90;;;;;;5131704;28;20172;-51
2022/01/04 12:05:00;;;;;;;4.30;3.35;;;8.50;99.90;;;;;;5131600;28;20176;-51
2022/01/04 12:07:45;;;;;;;5.55;3.30;;;8.40;99.90;;;;;;5131946;28;20180;-51
2022/01/04 12:10:20;;;;;;;4.25;3.85;;;8.50;99.90;;;;;;5131713;28;20231;-51
2022/01/04 12:13:22;;;;;;;7.10;3.80;;;8.50;99.90;;;;;;5131586;28;20179;-51
2022/01/04 12:15:51;;;;;;;5.25;3.60;;;8.50;99.90;;;;;;5028173;28;20533;-52
2022/01/04 12:18:31;;;;;;;6.70;3.38;;;8.50;99.90;;;;;;5112810;28;20172;-51
2022/01/04 12:21:00;;;;;;;6.35;4.38;;;8.50;99.90;;;;;;5131412;28;20684;-51
2022/01/04 12:23:33;;;;;;;9.48;5.05;;;8.50;99.90;;;;;;5113412;28;20690;-51
2022/01/04 12:26:16;;;;;;;5.63;4.60;;;9.80;99.90;;;;;;5131769;28;20550;-51
2022/01/04 12:29:05;;;;;;;7.38;5.30;;;8.60;99.90;;;;;;5131082;28;20206;-51
2022/01/04 12:31:31;;;;;;;6.45;5.03;;;8.60;99.90;;;;;;5130995;28;20179;-51
2022/01/04 12:33:59;;;;;;;8.45;4.57;;;8.60;99.90;;;;;;5131704;28;20168;-51
2022/01/04 12:36:36;;;;;;;7.22;5.97;;;8.60;99.90;;;;;;5131387;28;20177;-51
2022/01/04 12:39:02;;;;;;;15.75;9.48;;;8.60;99.90;;;;;;5131067;28;20164;-51
2022/01/04 12:41:30;;;;;;;8.15;5.85;;;8.50;99.90;;;;;;5133757;27;20487;-51
2022/01/04 12:43:56;;;;;;;10.13;7.70;;;8.60;99.90;;;;;;5135696;27;20172;-51
2022/01/04 12:46:31;;;;;;;8.57;7.47;;;8.60;99.90;;;;;;5134750;27;20160;-51
2022/01/04 12:49:12;;;;;;;9.38;7.90;;;8.60;99.90;;;;;;5135138;27;20282;-51
2022/01/04 12:51:37;;;;;;;11.00;7.63;;;8.60;99.90;;;;;;5134485;27;20168;-51
2022/01/04 12:54:10;;;;;;;11.75;7.53;;;8.60;99.90;;;;;;5134610;27;20243;-51
2022/01/04 12:56:44;;;;;;;9.15;7.10;;;8.70;99.90;;;;;;5115465;27;20164;-51
2022/01/04 12:59:18;;;;;;;8.27;6.57;;;8.70;99.90;;;;;;5134502;27;20160;-51
2022/01/04 13:01:47;;;;;;;9.05;7.70;;;8.60;99.90;;;;;;5134383;27;20187;-50
2022/01/04 13:04:24;;;;;;;11.35;7.97;;;8.60;99.90;;;;;;5134249;27;20658;-49
2022/01/04 13:06:51;;;;;;;12.75;8.57;;;8.70;99.90;;;;;;5134387;27;20202;-47
2022/01/04 13:09:18;;;;;;;10.98;8.38;;;8.70;99.90;;;;;;5134240;27;20243;-48